createdAt,value
2023-04-26T00:00:57.672Z,525.00
2023-04-26T00:01:57.662Z,517.00
2023-04-26T00:02:57.799Z,520.00
2023-04-26T00:03:57.944Z,556.00
2023-04-26T00:04:57.842Z,546.00
2023-04-26T00:05:57.764Z,560.00
2023-04-26T00:06:57.635Z,544.00
2023-04-26T00:07:57.631Z,530.00
2023-04-26T00:08:57.638Z,546.00
2023-04-26T00:09:57.630Z,559.00
2023-04-26T00:10:57.629Z,555.00
2023-04-26T00:11:57.618Z,564.00
2023-04-26T00:12:57.611Z,554.00
2023-04-26T00:13:57.588Z,555.00
2023-04-26T00:14:57.598Z,553.00
2023-04-26T00:15:57.692Z,525.00
2023-04-26T00:16:57.592Z,492.00
2023-04-26T00:17:57.626Z,517.00
2023-04-26T00:18:57.597Z,529.00
2023-04-26T00:19:57.591Z,551.00
2023-04-26T00:20:57.587Z,579.00
2023-04-26T00:21:57.596Z,584.00
2023-04-26T00:22:57.682Z,589.00
2023-04-26T00:23:57.601Z,579.00
2023-04-26T00:24:57.597Z,574.00
2023-04-26T00:25:57.603Z,564.00
2023-04-26T00:26:57.617Z,559.00
2023-04-26T00:27:57.650Z,551.00
2023-04-26T00:28:57.623Z,568.00
2023-04-26T00:29:57.611Z,570.00
2023-04-26T00:30:57.624Z,580.00
2023-04-26T00:31:57.659Z,566.00
2023-04-26T00:32:57.682Z,573.00
2023-04-26T00:33:57.639Z,577.00
2023-04-26T00:34:57.685Z,578.00
2023-04-26T00:35:57.668Z,574.00
2023-04-26T00:36:57.692Z,589.00
2023-04-26T00:37:57.711Z,582.00
2023-04-26T00:38:57.738Z,563.00
2023-04-26T00:39:57.733Z,552.00
2023-04-26T00:40:57.745Z,558.00
2023-04-26T00:41:57.740Z,564.00
2023-04-26T00:42:57.723Z,558.00
2023-04-26T00:43:57.788Z,558.00
2023-04-26T00:44:57.887Z,556.00
2023-04-26T00:45:57.800Z,562.00
2023-04-26T00:46:57.796Z,560.00
2023-04-26T00:47:57.843Z,559.00
2023-04-26T00:48:57.801Z,561.00
2023-04-26T00:49:57.848Z,547.00
2023-04-26T00:50:57.831Z,553.00
2023-04-26T00:51:57.880Z,574.00
2023-04-26T00:52:57.926Z,564.00
2023-04-26T00:53:57.891Z,567.00
2023-04-26T00:54:58.878Z,569.00
2023-04-26T00:55:57.962Z,568.00
2023-04-26T00:56:57.924Z,575.00
2023-04-26T00:57:57.936Z,581.00
2023-04-26T00:58:57.940Z,567.00
2023-04-26T00:59:57.955Z,578.00
2023-04-26T01:00:58.015Z,606.00
2023-04-26T01:01:58.006Z,574.00
2023-04-26T01:02:58.090Z,570.00
2023-04-26T01:03:58.229Z,567.00
2023-04-26T01:04:58.007Z,578.00
2023-04-26T01:05:58.111Z,582.00
2023-04-26T01:06:58.067Z,594.00
2023-04-26T01:07:58.087Z,586.00
2023-04-26T01:08:58.108Z,587.00
2023-04-26T01:09:58.107Z,577.00
2023-04-26T01:10:58.120Z,585.00
2023-04-26T01:11:58.156Z,566.00
2023-04-26T01:12:58.137Z,547.00
2023-04-26T01:13:58.188Z,511.00
2023-04-26T01:14:58.214Z,545.00
2023-04-26T01:15:58.227Z,557.00
2023-04-26T01:16:58.257Z,565.00
2023-04-26T01:17:58.321Z,556.00
2023-04-26T01:18:58.278Z,583.00
2023-04-26T01:19:58.325Z,589.00
2023-04-26T01:20:58.440Z,579.00
2023-04-26T01:21:58.322Z,578.00
2023-04-26T01:22:58.358Z,590.00
2023-04-26T01:23:58.396Z,590.00
2023-04-26T01:24:58.448Z,552.00
2023-04-26T01:25:58.416Z,591.00
2023-04-26T01:26:58.466Z,594.00
2023-04-26T01:27:58.496Z,594.00
2023-04-26T01:28:58.486Z,597.00
2023-04-26T01:29:58.491Z,574.00
2023-04-26T01:30:58.538Z,566.00
2023-04-26T01:31:58.522Z,573.00
2023-04-26T01:32:58.576Z,568.00
2023-04-26T01:33:58.546Z,581.00
2023-04-26T01:34:58.583Z,599.00
2023-04-26T01:35:58.574Z,581.00
2023-04-26T01:36:58.605Z,573.00
2023-04-26T01:37:58.649Z,564.00
2023-04-26T01:38:58.646Z,580.00
2023-04-26T01:39:58.682Z,603.00
2023-04-26T01:40:58.707Z,596.00
2023-04-26T01:41:58.741Z,545.00
2023-04-26T01:42:58.721Z,559.00
2023-04-26T01:43:58.748Z,600.00
2023-04-26T01:44:58.762Z,615.00
2023-04-26T01:45:58.979Z,572.00
2023-04-26T01:46:58.810Z,570.00
2023-04-26T01:47:58.850Z,572.00
2023-04-26T01:48:58.810Z,606.00
2023-04-26T01:49:58.869Z,624.00
2023-04-26T01:50:58.869Z,568.00
2023-04-26T01:51:58.935Z,560.00
2023-04-26T01:52:58.915Z,559.00
2023-04-26T01:53:58.947Z,571.00
2023-04-26T01:54:58.955Z,576.00
2023-04-26T01:55:58.966Z,564.00
2023-04-26T01:56:58.973Z,576.00
2023-04-26T01:57:58.988Z,572.00
2023-04-26T01:58:59.004Z,583.00
2023-04-26T01:59:59.011Z,600.00
2023-04-26T02:00:59.009Z,594.00
2023-04-26T02:01:59.136Z,576.00
2023-04-26T02:02:59.154Z,590.00
2023-04-26T02:03:59.082Z,573.00
2023-04-26T02:04:59.133Z,576.00
2023-04-26T02:05:59.130Z,613.00
2023-04-26T02:06:59.135Z,594.00
2023-04-26T02:07:59.143Z,565.00
2023-04-26T02:08:59.227Z,593.00
2023-04-26T02:09:59.202Z,614.00
2023-04-26T02:10:59.239Z,629.00
2023-04-26T02:11:59.209Z,632.00
2023-04-26T02:12:59.196Z,633.00
2023-04-26T02:13:59.238Z,641.00
2023-04-26T02:14:59.253Z,617.00
2023-04-26T02:15:59.432Z,598.00
2023-04-26T02:16:59.283Z,611.00
2023-04-26T02:17:59.320Z,579.00
2023-04-26T02:18:59.332Z,574.00
2023-04-26T02:19:59.317Z,586.00
2023-04-26T02:20:59.348Z,591.00
2023-04-26T02:21:59.353Z,617.00
2023-04-26T02:22:59.353Z,623.00
2023-04-26T02:23:59.372Z,591.00
2023-04-26T02:24:59.561Z,584.00
2023-04-26T02:25:59.403Z,597.00
2023-04-26T02:26:59.402Z,580.00
2023-04-26T02:27:59.447Z,594.00
2023-04-26T02:28:59.433Z,626.00
2023-04-26T02:29:59.495Z,637.00
2023-04-26T02:30:59.520Z,578.00
2023-04-26T02:31:59.522Z,571.00
2023-04-26T02:32:59.558Z,624.00
2023-04-26T02:33:59.542Z,626.00
2023-04-26T02:34:59.591Z,584.00
2023-04-26T02:35:59.582Z,572.00
2023-04-26T02:36:59.586Z,565.00
2023-04-26T02:37:59.588Z,574.00
2023-04-26T02:38:59.637Z,576.00
2023-04-26T02:39:59.642Z,618.00
2023-04-26T02:40:59.678Z,626.00
2023-04-26T02:41:59.706Z,629.00
2023-04-26T02:42:59.682Z,654.00
2023-04-26T02:43:59.708Z,654.00
2023-04-26T02:44:59.722Z,642.00
2023-04-26T02:45:59.754Z,647.00
2023-04-26T02:46:59.787Z,640.00
2023-04-26T02:47:59.805Z,664.00
2023-04-26T02:48:59.791Z,626.00
2023-04-26T02:49:59.798Z,638.00
2023-04-26T02:50:59.824Z,613.00
2023-04-26T02:51:59.853Z,639.00
2023-04-26T02:52:59.895Z,660.00
2023-04-26T02:53:59.862Z,688.00
2023-04-26T02:54:59.905Z,709.00
2023-04-26T02:55:59.930Z,676.00
2023-04-26T02:56:59.926Z,645.00
2023-04-26T02:57:59.932Z,657.00
2023-04-26T02:59:00.041Z,664.00
2023-04-26T02:59:59.976Z,645.00
2023-04-26T03:01:01.579Z,681.00
2023-04-26T03:02:00.058Z,662.00
2023-04-26T03:03:00.215Z,664.00
2023-04-26T03:04:00.163Z,662.00
2023-04-26T03:05:00.059Z,664.00
2023-04-26T03:06:00.072Z,679.00
2023-04-26T03:07:00.124Z,630.00
2023-04-26T03:08:00.125Z,651.00
2023-04-26T03:09:00.139Z,637.00
2023-04-26T03:10:00.191Z,636.00
2023-04-26T03:11:00.200Z,649.00
2023-04-26T03:12:00.282Z,615.00
2023-04-26T03:13:00.268Z,649.00
2023-04-26T03:14:00.221Z,626.00
2023-04-26T03:15:00.313Z,656.00
2023-04-26T03:16:00.277Z,686.00
2023-04-26T03:17:00.424Z,656.00
2023-04-26T03:18:00.357Z,654.00
2023-04-26T03:19:00.346Z,660.00
2023-04-26T03:20:02.499Z,615.00
2023-04-26T03:21:00.499Z,643.00
2023-04-26T03:22:00.534Z,649.00
2023-04-26T03:23:00.529Z,649.00
2023-04-26T03:24:00.554Z,671.00
2023-04-26T03:25:00.554Z,650.00
2023-04-26T03:26:00.579Z,656.00
2023-04-26T03:27:00.588Z,669.00
2023-04-26T03:28:00.644Z,673.00
2023-04-26T03:29:00.667Z,648.00
2023-04-26T03:30:00.664Z,638.00
2023-04-26T03:31:00.696Z,629.00
2023-04-26T03:32:00.797Z,643.00
2023-04-26T03:33:00.749Z,648.00
2023-04-26T03:34:00.735Z,665.00
2023-04-26T03:35:00.754Z,649.00
2023-04-26T03:36:00.802Z,649.00
2023-04-26T03:37:00.797Z,691.00
2023-04-26T03:38:00.835Z,642.00
2023-04-26T03:39:00.852Z,637.00
2023-04-26T03:40:01.000Z,665.00
2023-04-26T03:41:00.900Z,657.00
2023-04-26T03:42:00.936Z,643.00
2023-04-26T03:43:00.989Z,676.00
2023-04-26T03:44:00.994Z,614.00
2023-04-26T03:45:01.084Z,633.00
2023-04-26T03:46:01.080Z,634.00
2023-04-26T03:47:01.058Z,641.00
2023-04-26T03:48:01.102Z,634.00
2023-04-26T03:49:01.094Z,640.00
2023-04-26T03:50:01.127Z,633.00
2023-04-26T03:51:01.162Z,660.00
2023-04-26T03:52:01.167Z,680.00
2023-04-26T03:53:01.219Z,686.00
2023-04-26T03:54:01.233Z,659.00
2023-04-26T03:55:01.210Z,662.00
2023-04-26T03:56:01.240Z,654.00
2023-04-26T03:57:01.302Z,670.00
2023-04-26T03:58:01.307Z,700.00
2023-04-26T03:59:01.394Z,713.00
2023-04-26T04:00:01.396Z,659.00
2023-04-26T04:01:01.378Z,655.00
2023-04-26T04:02:01.432Z,645.00
2023-04-26T04:03:01.595Z,665.00
2023-04-26T04:04:01.695Z,684.00
2023-04-26T04:05:01.591Z,697.00
2023-04-26T04:06:01.501Z,725.00
2023-04-26T04:07:01.548Z,693.00
2023-04-26T04:08:01.587Z,689.00
2023-04-26T04:09:01.654Z,722.00
2023-04-26T04:10:01.596Z,684.00
2023-04-26T04:11:01.636Z,736.00
2023-04-26T04:12:01.645Z,731.00
2023-04-26T04:13:01.698Z,697.00
2023-04-26T04:14:01.722Z,708.00
2023-04-26T04:15:01.730Z,724.00
2023-04-26T04:16:01.804Z,673.00
2023-04-26T04:17:01.885Z,717.00
2023-04-26T04:18:01.863Z,757.00
2023-04-26T04:19:01.855Z,677.00
2023-04-26T04:20:01.886Z,705.00
2023-04-26T04:21:01.925Z,798.00
2023-04-26T04:22:01.977Z,857.00
2023-04-26T04:23:01.951Z,871.00
2023-04-26T04:24:02.016Z,873.00
2023-04-26T04:25:02.077Z,900.00
2023-04-26T04:26:02.064Z,851.00
2023-04-26T04:27:02.099Z,902.00
2023-04-26T04:28:02.095Z,957.00
2023-04-26T04:29:02.128Z,1018.00
2023-04-26T04:30:02.122Z,918.00
2023-04-26T04:31:02.211Z,986.00
2023-04-26T04:32:02.179Z,937.00
2023-04-26T04:33:02.272Z,956.00
2023-04-26T04:34:02.257Z,975.00
2023-04-26T04:35:02.315Z,1020.00
2023-04-26T04:36:02.316Z,1017.00
2023-04-26T04:37:02.346Z,1005.00
2023-04-26T04:38:02.367Z,1018.00
2023-04-26T04:39:02.393Z,1042.00
2023-04-26T04:40:02.461Z,1051.00
2023-04-26T04:41:02.495Z,1061.00
2023-04-26T04:42:02.502Z,1073.00
2023-04-26T04:43:02.537Z,1085.00
2023-04-26T04:44:02.574Z,1090.00
2023-04-26T04:45:02.606Z,1144.00
2023-04-26T04:46:02.697Z,1133.00
2023-04-26T04:47:02.686Z,1162.00
2023-04-26T04:48:02.740Z,1196.00
2023-04-26T04:49:02.759Z,1166.00
2023-04-26T04:50:02.776Z,1154.00
2023-04-26T04:51:02.830Z,1131.00
2023-04-26T04:52:02.865Z,1263.00
2023-04-26T04:53:02.978Z,1393.00
2023-04-26T04:54:02.953Z,1436.00
2023-04-26T04:55:02.989Z,1452.00
2023-04-26T04:56:03.010Z,1489.00
2023-04-26T04:57:03.050Z,1528.00
2023-04-26T04:58:03.022Z,1560.00
2023-04-26T04:59:03.056Z,1595.00
2023-04-26T05:00:03.059Z,1618.00
2023-04-26T05:01:03.076Z,1711.00
2023-04-26T05:02:03.118Z,1731.00
2023-04-26T05:03:03.241Z,1725.00
2023-04-26T05:04:04.160Z,1761.00
2023-04-26T05:05:03.156Z,1794.00
2023-04-26T05:06:03.090Z,1827.00
2023-04-26T05:07:03.104Z,1813.00
2023-04-26T05:08:03.169Z,1868.00
2023-04-26T05:09:03.157Z,1917.00
2023-04-26T05:10:03.149Z,1942.00
2023-04-26T05:11:03.121Z,1959.00
2023-04-26T05:12:03.116Z,1960.00
2023-04-26T05:13:03.108Z,1986.00
2023-04-26T05:14:03.110Z,2000.00
2023-04-26T05:15:03.085Z,2013.00
2023-04-26T05:16:03.099Z,1988.00
2023-04-26T05:17:03.049Z,2033.00
2023-04-26T05:18:03.103Z,2000.00
2023-04-26T05:19:03.046Z,2026.00
2023-04-26T05:20:03.447Z,2080.00
2023-04-26T05:21:03.070Z,2089.00
2023-04-26T05:22:03.072Z,2071.00
2023-04-26T05:23:03.130Z,2103.00
2023-04-26T05:24:03.151Z,2122.00
2023-04-26T05:25:03.167Z,2102.00
2023-04-26T05:26:03.215Z,2149.00
2023-04-26T05:27:03.242Z,2164.00
2023-04-26T05:28:03.298Z,2184.00
2023-04-26T05:29:03.334Z,2168.00
2023-04-26T05:30:03.393Z,2167.00
2023-04-26T05:31:03.368Z,2213.00
2023-04-26T05:32:03.576Z,2199.00
2023-04-26T05:33:03.551Z,2230.00
2023-04-26T05:34:03.522Z,2261.00
2023-04-26T05:35:03.607Z,2211.00
2023-04-26T05:36:03.685Z,2242.00
2023-04-26T05:37:03.674Z,2186.00
2023-04-26T05:38:03.683Z,2220.00
2023-04-26T05:39:03.709Z,2209.00
2023-04-26T05:40:03.755Z,2303.00
2023-04-26T05:41:03.796Z,2293.00
2023-04-26T05:42:03.820Z,2339.00
2023-04-26T05:43:03.872Z,2319.00
2023-04-26T05:44:03.920Z,2355.00
2023-04-26T05:45:03.950Z,2338.00
2023-04-26T05:46:04.130Z,2349.00
2023-04-26T05:47:04.028Z,2363.00
2023-04-26T05:48:04.119Z,2380.00
2023-04-26T05:49:04.029Z,2388.00
2023-04-26T05:50:04.506Z,2405.00
2023-04-26T05:51:04.030Z,2430.00
2023-04-26T05:52:04.014Z,2483.00
2023-04-26T05:53:04.024Z,2517.00
2023-04-26T05:54:04.077Z,2501.00
2023-04-26T05:55:04.473Z,2474.00
2023-04-26T05:56:04.017Z,2527.00
2023-04-26T05:57:04.020Z,2480.00
2023-04-26T05:58:03.984Z,2500.00
2023-04-26T05:59:04.001Z,2450.00
2023-04-26T06:00:04.040Z,2547.00
2023-04-26T06:01:03.980Z,2543.00
2023-04-26T06:02:03.982Z,2586.00
2023-04-26T06:03:04.147Z,2597.00
2023-04-26T06:04:04.365Z,2614.00
2023-04-26T06:05:04.741Z,2583.00
2023-04-26T06:06:04.192Z,2604.00
2023-04-26T06:07:04.177Z,2611.00
2023-04-26T06:08:04.217Z,2598.00
2023-04-26T06:09:04.289Z,2584.00
2023-04-26T06:10:04.326Z,2608.00
2023-04-26T06:11:04.351Z,2606.00
2023-04-26T06:12:04.365Z,2612.00
2023-04-26T06:13:04.450Z,2618.00
2023-04-26T06:14:04.462Z,2605.00
2023-04-26T06:15:04.516Z,2602.00
2023-04-26T06:16:04.515Z,2611.00
2023-04-26T06:17:04.596Z,2606.00
2023-04-26T06:18:04.679Z,2624.00
2023-04-26T06:19:04.644Z,2633.00
2023-04-26T06:20:04.667Z,2626.00
2023-04-26T06:21:04.680Z,2636.00
2023-04-26T06:22:04.740Z,2626.00
2023-04-26T06:23:04.790Z,2662.00
2023-04-26T06:24:04.797Z,2654.00
2023-04-26T06:25:04.831Z,2658.00
2023-04-26T06:26:04.832Z,2649.00
2023-04-26T06:27:04.846Z,2647.00
2023-04-26T06:28:04.853Z,2641.00
2023-04-26T06:29:04.900Z,2647.00
2023-04-26T06:30:04.953Z,2647.00
2023-04-26T06:31:04.967Z,2622.00
2023-04-26T06:32:04.984Z,2604.00
2023-04-26T06:33:05.038Z,2606.00
2023-04-26T06:34:05.010Z,2604.00
2023-04-26T06:35:05.066Z,2639.00
2023-04-26T06:36:05.071Z,2661.00
2023-04-26T06:37:05.108Z,2686.00
2023-04-26T06:38:05.148Z,2678.00
2023-04-26T06:39:05.191Z,2686.00
2023-04-26T06:40:05.201Z,2696.00
2023-04-26T06:41:05.247Z,2683.00
2023-04-26T06:42:05.288Z,2695.00
2023-04-26T06:43:05.305Z,2699.00
2023-04-26T06:44:05.339Z,2677.00
2023-04-26T06:45:05.390Z,2671.00
2023-04-26T06:46:05.442Z,2659.00
2023-04-26T06:47:05.464Z,2669.00
2023-04-26T06:48:05.577Z,2716.00
2023-04-26T06:49:05.552Z,2744.00
2023-04-26T06:50:06.052Z,2717.00
2023-04-26T06:51:05.629Z,2700.00
2023-04-26T06:52:05.648Z,2747.00
2023-04-26T06:53:05.656Z,2801.00
2023-04-26T06:54:05.621Z,2771.00
2023-04-26T06:55:05.656Z,2751.00
2023-04-26T06:56:05.676Z,2732.00
2023-04-26T06:57:05.716Z,2729.00
2023-04-26T06:58:05.785Z,2714.00
2023-04-26T06:59:05.787Z,2727.00
2023-04-26T07:00:05.854Z,2696.00
2023-04-26T07:01:05.906Z,2676.00
2023-04-26T07:02:05.976Z,2681.00
2023-04-26T07:03:06.126Z,2666.00
2023-04-26T07:04:06.159Z,2653.00
2023-04-26T07:05:06.284Z,2634.00
2023-04-26T07:06:06.128Z,2617.00
2023-04-26T07:07:06.191Z,2611.00
2023-04-26T07:08:06.250Z,2594.00
2023-04-26T07:09:06.311Z,2601.00
2023-04-26T07:10:06.554Z,2624.00
2023-04-26T07:11:06.342Z,2616.00
2023-04-26T07:12:06.822Z,2605.00
2023-04-26T07:13:08.197Z,2612.00
2023-04-26T07:14:06.358Z,2623.00
2023-04-26T07:15:06.378Z,2611.00
2023-04-26T07:16:06.413Z,2603.00
2023-04-26T07:17:06.344Z,2597.00
2023-04-26T07:18:06.379Z,2595.00
2023-04-26T07:19:06.300Z,2584.00
2023-04-26T07:20:06.320Z,2598.00
2023-04-26T07:21:06.299Z,2595.00
2023-04-26T07:22:06.306Z,2590.00
2023-04-26T07:23:06.276Z,2592.00
2023-04-26T07:24:06.301Z,2610.00
2023-04-26T07:25:06.246Z,2608.00
2023-04-26T07:26:06.247Z,2592.00
2023-04-26T07:27:06.227Z,2601.00
2023-04-26T07:28:06.192Z,2605.00
2023-04-26T07:29:06.237Z,2617.00
2023-04-26T07:30:06.196Z,2612.00
2023-04-26T07:31:08.436Z,2599.00
2023-04-26T07:32:06.188Z,2600.00
2023-04-26T07:33:06.276Z,2601.00
2023-04-26T07:34:06.172Z,2589.00
2023-04-26T07:35:06.180Z,2603.00
2023-04-26T07:36:06.125Z,2604.00
2023-04-26T07:37:06.192Z,2603.00
2023-04-26T07:38:06.117Z,2619.00
2023-04-26T07:39:06.105Z,2629.00
2023-04-26T07:40:06.573Z,2582.00
2023-04-26T07:41:06.064Z,2558.00
2023-04-26T07:42:06.071Z,2616.00
2023-04-26T07:43:06.039Z,2597.00
2023-04-26T07:44:06.078Z,2620.00
2023-04-26T07:45:06.017Z,2633.00
2023-04-26T07:46:06.085Z,2654.00
2023-04-26T07:47:06.082Z,2677.00
2023-04-26T07:48:06.042Z,2678.00
2023-04-26T07:49:05.952Z,2669.00
2023-04-26T07:50:05.944Z,2650.00
2023-04-26T07:51:05.946Z,2621.00
2023-04-26T07:52:05.905Z,2639.00
2023-04-26T07:53:05.885Z,2655.00
2023-04-26T07:54:05.927Z,2637.00
2023-04-26T07:55:05.867Z,2611.00
2023-04-26T07:56:05.845Z,2606.00
2023-04-26T07:57:05.818Z,2606.00
2023-04-26T07:58:05.799Z,2626.00
2023-04-26T07:59:05.771Z,2628.00
2023-04-26T08:00:05.819Z,2613.00
2023-04-26T08:01:05.750Z,2612.00
2023-04-26T08:02:05.782Z,2620.00
2023-04-26T08:03:05.821Z,2627.00
2023-04-26T08:04:05.969Z,2641.00
2023-04-26T08:05:05.854Z,2638.00
2023-04-26T08:06:05.853Z,2629.00
2023-04-26T08:07:05.634Z,2635.00
2023-04-26T08:08:05.596Z,2645.00
2023-04-26T08:09:05.591Z,2645.00
2023-04-26T08:10:06.024Z,2641.00
2023-04-26T08:11:05.556Z,2646.00
2023-04-26T08:12:05.553Z,2626.00
2023-04-26T08:13:05.550Z,2634.00
2023-04-26T08:14:05.534Z,2643.00
2023-04-26T08:15:05.486Z,2646.00
2023-04-26T08:16:05.532Z,2635.00
2023-04-26T08:17:05.627Z,2620.00
2023-04-26T08:18:05.641Z,2613.00
2023-04-26T08:19:05.631Z,2626.00
2023-04-26T08:20:05.661Z,2652.00
2023-04-26T08:21:05.739Z,2633.00
2023-04-26T08:22:05.761Z,2636.00
2023-04-26T08:23:05.771Z,2680.00
2023-04-26T08:24:05.840Z,2680.00
2023-04-26T08:25:05.879Z,2661.00
2023-04-26T08:26:05.908Z,2650.00
2023-04-26T08:27:05.939Z,2666.00
2023-04-26T08:28:06.028Z,2686.00
2023-04-26T08:29:06.050Z,2689.00
2023-04-26T08:30:06.089Z,2658.00
2023-04-26T08:31:06.179Z,2658.00
2023-04-26T08:32:06.355Z,2668.00
2023-04-26T08:33:06.263Z,2640.00
2023-04-26T08:34:06.234Z,2637.00
2023-04-26T08:35:06.561Z,2624.00
2023-04-26T08:36:06.297Z,2625.00
2023-04-26T08:37:06.374Z,2620.00
2023-04-26T08:38:06.365Z,2638.00
2023-04-26T08:39:06.398Z,2671.00
2023-04-26T08:40:06.526Z,2699.00
2023-04-26T08:41:06.485Z,2638.00
2023-04-26T08:42:06.484Z,2643.00
2023-04-26T08:43:06.502Z,2619.00
2023-04-26T08:44:06.548Z,2575.00
2023-04-26T08:45:07.032Z,2618.00
2023-04-26T08:46:06.633Z,2606.00
2023-04-26T08:47:06.624Z,2556.00
2023-04-26T08:48:06.647Z,2542.00
2023-04-26T08:49:06.643Z,2528.00
2023-04-26T08:50:06.689Z,2553.00
2023-04-26T08:51:07.039Z,2604.00
2023-04-26T08:52:06.722Z,2646.00
2023-04-26T08:53:06.736Z,2680.00
2023-04-26T08:54:06.807Z,2624.00
2023-04-26T08:55:06.828Z,2499.00
2023-04-26T08:56:06.830Z,2363.00
2023-04-26T08:57:06.897Z,2250.00
2023-04-26T08:58:06.868Z,2251.00
2023-04-26T08:59:07.068Z,2343.00
2023-04-26T09:00:06.957Z,2372.00
2023-04-26T09:01:06.976Z,2402.00
2023-04-26T09:02:07.082Z,2439.00
2023-04-26T09:03:07.155Z,2465.00
2023-04-26T09:04:07.090Z,2505.00
2023-04-26T09:05:07.096Z,2495.00
2023-04-26T09:06:07.722Z,2441.00
2023-04-26T09:07:07.061Z,2391.00
2023-04-26T09:08:07.125Z,2402.00
2023-04-26T09:09:07.123Z,2393.00
2023-04-26T09:10:07.136Z,2393.00
2023-04-26T09:11:07.189Z,2405.00
2023-04-26T09:12:07.179Z,2420.00
2023-04-26T09:13:07.219Z,2424.00
2023-04-26T09:14:07.236Z,2457.00
2023-04-26T09:15:07.280Z,2411.00
2023-04-26T09:16:07.310Z,2386.00
2023-04-26T09:17:07.298Z,2376.00
2023-04-26T09:18:07.351Z,2402.00
2023-04-26T09:19:07.337Z,2407.00
2023-04-26T09:20:08.085Z,2422.00
2023-04-26T09:21:07.433Z,2408.00
2023-04-26T09:22:07.396Z,2388.00
2023-04-26T09:23:07.440Z,2398.00
2023-04-26T09:24:07.463Z,2352.00
2023-04-26T09:25:07.450Z,2312.00
2023-04-26T09:26:07.547Z,2321.00
2023-04-26T09:27:07.518Z,2332.00
2023-04-26T09:28:07.566Z,2270.00
2023-04-26T09:29:07.564Z,2308.00
2023-04-26T09:30:07.615Z,2292.00
2023-04-26T09:31:07.722Z,2270.00
2023-04-26T09:32:07.630Z,2296.00
2023-04-26T09:33:07.681Z,2340.00
2023-04-26T09:34:07.690Z,2390.00
2023-04-26T09:35:07.695Z,2419.00
2023-04-26T09:36:07.706Z,2406.00
2023-04-26T09:37:07.723Z,2407.00
2023-04-26T09:39:07.794Z,2425.00
2023-04-26T09:40:07.819Z,2435.00
2023-04-26T09:41:08.068Z,2449.00
2023-04-26T09:42:07.812Z,2521.00
2023-04-26T09:43:07.872Z,2594.00
2023-04-26T09:44:08.541Z,2580.00
2023-04-26T09:45:07.881Z,2571.00
2023-04-26T09:46:08.088Z,2590.00
2023-04-26T09:47:08.004Z,2598.00
2023-04-26T09:48:07.971Z,2430.00
2023-04-26T09:49:08.013Z,2492.00
2023-04-26T09:50:08.018Z,2431.00
2023-04-26T09:51:08.014Z,2417.00
2023-04-26T09:52:08.287Z,2410.00
2023-04-26T09:53:08.117Z,2405.00
2023-04-26T09:54:08.057Z,2421.00
2023-04-26T09:55:08.103Z,2404.00
2023-04-26T09:56:08.114Z,2353.00
2023-04-26T09:57:08.115Z,2297.00
2023-04-26T09:58:08.096Z,2259.00
2023-04-26T09:59:08.106Z,2267.00
2023-04-26T10:00:08.117Z,2301.00
2023-04-26T10:01:08.232Z,2229.00
2023-04-26T10:02:08.108Z,2155.00
2023-04-26T10:03:08.388Z,2203.00
2023-04-26T10:04:08.257Z,2197.00
2023-04-26T10:05:08.171Z,2230.00
2023-04-26T10:06:08.212Z,2224.00
2023-04-26T10:07:08.238Z,2274.00
2023-04-26T10:08:08.239Z,2271.00
2023-04-26T10:09:08.258Z,2254.00
2023-04-26T10:10:08.285Z,2164.00
2023-04-26T10:11:08.301Z,2218.00
2023-04-26T10:12:08.327Z,2217.00
2023-04-26T10:13:08.335Z,2202.00
2023-04-26T10:14:08.407Z,2196.00
2023-04-26T10:15:15.416Z,2152.00
2023-04-26T10:16:08.547Z,2153.00
2023-04-26T10:17:08.369Z,2153.00
2023-04-26T10:18:08.454Z,2175.00
2023-04-26T10:19:08.367Z,2217.00
2023-04-26T10:20:08.365Z,2317.00
2023-04-26T10:21:08.372Z,2334.00
2023-04-26T10:22:08.322Z,2324.00
2023-04-26T10:23:08.309Z,2332.00
2023-04-26T10:24:08.273Z,2332.00
2023-04-26T10:25:08.255Z,2341.00
2023-04-26T10:26:08.272Z,2339.00
2023-04-26T10:27:08.257Z,2346.00
2023-04-26T10:28:08.271Z,2331.00
2023-04-26T10:29:08.355Z,2308.00
2023-04-26T10:30:08.203Z,2319.00
2023-04-26T10:31:08.231Z,2328.00
2023-04-26T10:32:08.282Z,2360.00
2023-04-26T10:33:08.213Z,2389.00
2023-04-26T10:34:09.131Z,2368.00
2023-04-26T10:35:08.105Z,2299.00
2023-04-26T10:36:08.607Z,2197.00
2023-04-26T10:37:08.111Z,2195.00
2023-04-26T10:38:08.068Z,2260.00
2023-04-26T10:39:08.055Z,2374.00
2023-04-26T10:40:08.084Z,2424.00
2023-04-26T10:41:08.047Z,2524.00
2023-04-26T10:42:07.999Z,2638.00
2023-04-26T10:43:07.980Z,2594.00
2023-04-26T10:44:07.937Z,2594.00
2023-04-26T10:45:07.986Z,2553.00
2023-04-26T10:46:07.986Z,2522.00
2023-04-26T10:47:07.904Z,2491.00
2023-04-26T10:48:07.908Z,2469.00
2023-04-26T10:49:07.859Z,2496.00
2023-04-26T10:50:07.844Z,2508.00
2023-04-26T10:51:07.814Z,2509.00
2023-04-26T10:52:07.810Z,2508.00
2023-04-26T10:53:07.781Z,2521.00
2023-04-26T10:54:07.780Z,2531.00
2023-04-26T10:55:07.878Z,2531.00
2023-04-26T10:56:07.730Z,2501.00
2023-04-26T10:57:07.671Z,2468.00
2023-04-26T10:58:07.677Z,2444.00
2023-04-26T10:59:18.030Z,2437.00
2023-04-26T11:00:08.620Z,2413.00
2023-04-26T11:01:07.705Z,2362.00
2023-04-26T11:02:07.615Z,2328.00
2023-04-26T11:03:07.661Z,2293.00
2023-04-26T11:04:07.671Z,2261.00
2023-04-26T11:05:07.573Z,2229.00
2023-04-26T11:06:07.560Z,2183.00
2023-04-26T11:07:07.543Z,2178.00
2023-04-26T11:08:07.493Z,2109.00
2023-04-26T11:09:07.455Z,2087.00
2023-04-26T11:10:07.448Z,2009.00
2023-04-26T11:11:07.446Z,1989.00
2023-04-26T11:12:07.401Z,1977.00
2023-04-26T11:13:07.384Z,2022.00
2023-04-26T11:14:07.355Z,2016.00
2023-04-26T11:15:07.368Z,1973.00
2023-04-26T11:16:07.329Z,1961.00
2023-04-26T11:17:07.325Z,1966.00
2023-04-26T11:18:07.319Z,1919.00
2023-04-26T11:19:07.276Z,1964.00
2023-04-26T11:20:07.253Z,2014.00
2023-04-26T11:21:07.414Z,2032.00
2023-04-26T11:22:07.191Z,1990.00
2023-04-26T11:23:07.213Z,1993.00
2023-04-26T11:24:07.239Z,1889.00
2023-04-26T11:25:07.235Z,1816.00
2023-04-26T11:26:07.629Z,1796.00
2023-04-26T11:27:07.249Z,1857.00
2023-04-26T11:28:07.259Z,1817.00
2023-04-26T11:29:07.250Z,1788.00
2023-04-26T11:30:07.249Z,1833.00
2023-04-26T11:31:07.698Z,1878.00
2023-04-26T11:32:07.239Z,1923.00
2023-04-26T11:33:07.254Z,1955.00
2023-04-26T11:34:07.193Z,1990.00
2023-04-26T11:35:07.211Z,2014.00
2023-04-26T11:36:07.183Z,2004.00
2023-04-26T11:37:07.257Z,2002.00
2023-04-26T11:38:07.205Z,1997.00
2023-04-26T11:39:07.215Z,2011.00
2023-04-26T11:40:07.259Z,1977.00
2023-04-26T11:41:07.259Z,1972.00
2023-04-26T11:42:07.276Z,1969.00
2023-04-26T11:43:07.215Z,1974.00
2023-04-26T11:44:07.429Z,1993.00
2023-04-26T11:45:07.198Z,2052.00
2023-04-26T11:46:07.246Z,2027.00
2023-04-26T11:47:07.160Z,2075.00
2023-04-26T11:48:07.180Z,2055.00
2023-04-26T11:49:07.099Z,1984.00
2023-04-26T11:50:07.087Z,1954.00
2023-04-26T11:51:07.235Z,1955.00
2023-04-26T11:52:07.074Z,1943.00
2023-04-26T11:53:07.036Z,1918.00
2023-04-26T11:54:07.020Z,1884.00
2023-04-26T11:55:07.004Z,1887.00
2023-04-26T11:56:07.017Z,1908.00
2023-04-26T11:57:06.979Z,1887.00
2023-04-26T11:58:06.967Z,1893.00
2023-04-26T11:59:06.955Z,1918.00
2023-04-26T12:00:07.068Z,1946.00
2023-04-26T12:01:06.977Z,1939.00
2023-04-26T12:02:06.994Z,1857.00
2023-04-26T12:03:07.225Z,1831.00
2023-04-26T12:04:07.044Z,1836.00
2023-04-26T12:05:14.602Z,1811.00
2023-04-26T12:06:06.972Z,1815.00
2023-04-26T12:07:06.955Z,1816.00
2023-04-26T12:08:06.928Z,1816.00
2023-04-26T12:09:06.901Z,1808.00
2023-04-26T12:10:06.880Z,1784.00
2023-04-26T12:11:06.879Z,1773.00
2023-04-26T12:12:06.861Z,1768.00
2023-04-26T12:13:06.824Z,1768.00
2023-04-26T12:14:06.821Z,1783.00
2023-04-26T12:15:06.823Z,1768.00
2023-04-26T12:16:15.105Z,1764.00